createdAt,value
2023-05-06T00:01:27.678Z,100728.69
2023-05-06T00:03:54.473Z,100727.22
2023-05-06T00:06:21.238Z,100726.22
2023-05-06T00:08:47.918Z,100724.09
2023-05-06T00:11:14.619Z,100729.78
2023-05-06T00:13:41.748Z,100725.34
2023-05-06T00:16:08.728Z,100725.66
2023-05-06T00:18:35.462Z,100730.22
2023-05-06T00:21:02.203Z,100721.66
2023-05-06T00:23:28.946Z,100729.19
2023-05-06T00:25:55.633Z,100729.53
2023-05-06T00:28:22.509Z,100720.13
2023-05-06T00:30:49.212Z,100722.22
2023-05-06T00:33:16.036Z,100723.25
2023-05-06T00:35:42.844Z,100731.97
2023-05-06T00:38:12.326Z,100726.94
2023-05-06T00:40:39.819Z,100731.16
2023-05-06T00:43:06.930Z,100719.72
2023-05-06T00:45:33.698Z,100725.06
2023-05-06T00:48:00.846Z,100726.75
2023-05-06T00:50:32.018Z,100725.06
2023-05-06T00:52:59.632Z,100726.22
2023-05-06T00:55:27.414Z,100727.88
2023-05-06T00:57:54.706Z,100723.97
2023-05-06T01:00:21.986Z,100729.72
2023-05-06T01:02:51.977Z,100719.50
2023-05-06T01:05:22.566Z,100725.41
2023-05-06T01:08:08.241Z,100724.38
2023-05-06T01:10:55.602Z,100731.31
2023-05-06T01:13:40.076Z,100721.16
2023-05-06T01:16:11.798Z,100723.31
2023-05-06T01:18:38.726Z,100723.81
2023-05-06T01:21:06.249Z,100726.19
2023-05-06T01:23:55.861Z,100726.94
2023-05-06T01:26:22.795Z,100723.78
2023-05-06T01:28:49.556Z,100725.50
2023-05-06T01:31:25.839Z,100729.63
2023-05-06T01:34:14.038Z,100732.00
2023-05-06T01:36:43.493Z,100738.09
2023-05-06T01:39:25.858Z,100734.47
2023-05-06T01:41:55.978Z,100735.41
2023-05-06T01:44:25.248Z,100734.94
2023-05-06T01:46:53.815Z,100735.34
2023-05-06T01:49:22.799Z,100735.75
2023-05-06T01:51:54.329Z,100734.94
2023-05-06T01:54:21.064Z,100730.81
2023-05-06T01:56:47.719Z,100734.16
2023-05-06T01:59:14.347Z,100738.38
2023-05-06T02:01:41.035Z,100741.56
2023-05-06T02:04:07.824Z,100738.06
2023-05-06T02:06:36.667Z,100735.75
2023-05-06T02:09:03.434Z,100736.81
2023-05-06T02:11:30.106Z,100729.19
2023-05-06T02:13:56.775Z,100739.25
2023-05-06T02:16:23.421Z,100737.34
2023-05-06T02:18:50.119Z,100740.41
2023-05-06T02:21:16.798Z,100733.09
2023-05-06T02:23:43.734Z,100736.09
2023-05-06T02:26:10.482Z,100732.25
2023-05-06T02:28:37.145Z,100734.94
2023-05-06T02:31:03.911Z,100739.16
2023-05-06T02:33:30.659Z,100741.53
2023-05-06T02:35:57.357Z,100748.34
2023-05-06T02:38:24.704Z,100748.63
2023-05-06T02:40:51.361Z,100747.91
2023-05-06T02:43:18.085Z,100742.56
2023-05-06T02:45:44.929Z,100744.50
2023-05-06T02:48:11.691Z,100737.78
2023-05-06T02:50:38.370Z,100741.91
2023-05-06T02:53:05.060Z,100743.78
2023-05-06T02:55:31.752Z,100742.31
2023-05-06T02:57:58.534Z,100741.25
2023-05-06T03:00:25.210Z,100748.34
2023-05-06T03:02:51.901Z,100742.91
2023-05-06T03:05:18.699Z,100748.78
2023-05-06T03:07:45.363Z,100747.22
2023-05-06T03:10:12.224Z,100742.88
2023-05-06T03:12:38.898Z,100742.81
2023-05-06T03:15:08.747Z,100739.50
2023-05-06T03:17:36.621Z,100741.53
2023-05-06T03:20:03.409Z,100736.19
2023-05-06T03:22:30.123Z,100732.19
2023-05-06T03:24:56.903Z,100743.38
2023-05-06T03:27:23.650Z,100735.91
2023-05-06T03:29:50.316Z,100731.72
2023-05-06T03:32:16.902Z,100738.38
2023-05-06T03:34:43.526Z,100732.31
2023-05-06T03:37:10.229Z,100733.59
2023-05-06T03:39:38.964Z,100735.94
2023-05-06T03:42:08.520Z,100734.84
2023-05-06T03:44:36.079Z,100734.66
2023-05-06T03:47:02.913Z,100734.41
2023-05-06T03:49:29.725Z,100745.59
2023-05-06T03:51:56.378Z,100748.91
2023-05-06T03:54:23.194Z,100752.66
2023-05-06T03:56:49.798Z,100756.44
2023-05-06T03:59:17.962Z,100755.34
2023-05-06T04:01:44.602Z,100753.13
2023-05-06T04:04:11.498Z,100759.69
2023-05-06T04:06:38.314Z,100759.56
2023-05-06T04:09:05.050Z,100757.38
2023-05-06T04:11:32.200Z,100756.84
2023-05-06T04:13:58.804Z,100768.91
2023-05-06T04:16:25.481Z,100771.13
2023-05-06T04:18:54.488Z,100762.59
2023-05-06T04:21:21.164Z,100765.31
2023-05-06T04:23:47.851Z,100762.94
2023-05-06T04:26:14.565Z,100768.34
2023-05-06T04:28:41.284Z,100767.13
2023-05-06T04:31:07.929Z,100765.00
2023-05-06T04:33:35.026Z,100761.31
2023-05-06T04:36:01.876Z,100769.97
2023-05-06T04:38:31.502Z,100753.91
2023-05-06T04:40:58.220Z,100757.19
2023-05-06T04:43:26.046Z,100748.75
2023-05-06T04:45:53.034Z,100758.03
2023-05-06T04:48:20.917Z,100757.66
2023-05-06T04:50:48.212Z,100760.84
2023-05-06T04:53:15.607Z,100764.13
2023-05-06T04:55:42.243Z,100764.22
2023-05-06T04:58:09.012Z,100764.97
2023-05-06T05:00:35.796Z,100767.16
2023-05-06T05:03:02.644Z,100767.16
2023-05-06T05:05:29.543Z,100765.72
2023-05-06T05:07:56.599Z,100764.84
2023-05-06T05:10:23.327Z,100777.91
2023-05-06T05:12:49.974Z,100767.84
2023-05-06T05:15:16.774Z,100767.00
2023-05-06T05:17:43.628Z,100767.47
2023-05-06T05:20:10.686Z,100771.31
2023-05-06T05:22:37.493Z,100767.97
2023-05-06T05:25:07.017Z,100775.28
2023-05-06T05:27:34.465Z,100769.97
2023-05-06T05:30:01.101Z,100761.09
2023-05-06T05:32:27.914Z,100762.78
2023-05-06T05:34:54.920Z,100762.09
2023-05-06T05:37:21.600Z,100760.25
2023-05-06T05:39:48.244Z,100762.88
2023-05-06T05:42:14.971Z,100761.72
2023-05-06T05:44:41.600Z,100756.44
2023-05-06T05:47:10.649Z,100767.16
2023-05-06T05:49:39.179Z,100767.81
2023-05-06T05:52:05.912Z,100760.69
2023-05-06T05:54:32.621Z,100763.31
2023-05-06T05:57:01.700Z,100773.28
2023-05-06T05:59:28.526Z,100778.78
2023-05-06T06:01:55.262Z,100774.00
2023-05-06T06:04:22.005Z,100774.25
2023-05-06T06:06:48.659Z,100770.56
2023-05-06T06:09:15.296Z,100781.59
2023-05-06T06:11:41.981Z,100782.56
2023-05-06T06:14:08.860Z,100772.47
2023-05-06T06:16:38.263Z,100769.00
2023-05-06T06:19:05.186Z,100775.22
2023-05-06T06:21:32.156Z,100776.38
2023-05-06T06:23:59.931Z,100775.88
2023-05-06T06:26:26.640Z,100772.75
2023-05-06T06:28:53.365Z,100769.88
2023-05-06T06:31:19.991Z,100770.50
2023-05-06T06:33:46.695Z,100773.47
2023-05-06T06:36:13.566Z,100778.91
2023-05-06T06:38:40.354Z,100772.22
2023-05-06T06:41:07.394Z,100775.19
2023-05-06T06:43:33.975Z,100783.59
2023-05-06T06:46:02.116Z,100778.69
2023-05-06T06:48:28.847Z,100773.69
2023-05-06T06:50:55.494Z,100774.75
2023-05-06T06:53:22.287Z,100778.00
2023-05-06T06:55:48.991Z,100773.56
2023-05-06T06:58:18.838Z,100774.91
2023-05-06T07:00:45.582Z,100772.56
2023-05-06T07:03:12.298Z,100773.38
2023-05-06T07:05:45.389Z,100779.75
2023-05-06T07:08:12.060Z,100785.56
2023-05-06T07:10:38.914Z,100781.53
2023-05-06T07:13:07.456Z,100785.91
2023-05-06T07:15:35.831Z,100780.06
2023-05-06T07:18:02.576Z,100782.25
2023-05-06T07:20:29.411Z,100787.38
2023-05-06T07:22:56.350Z,100780.91
2023-05-06T07:25:23.095Z,100789.41
2023-05-06T07:27:49.773Z,100793.50
2023-05-06T07:30:16.684Z,100791.56
2023-05-06T07:32:43.490Z,100792.75
2023-05-06T07:35:10.524Z,100793.09
2023-05-06T07:37:43.229Z,100785.19
2023-05-06T07:40:10.195Z,100786.72
2023-05-06T07:42:36.861Z,100798.88
2023-05-06T07:45:04.514Z,100794.97
2023-05-06T07:47:32.641Z,100796.50
2023-05-06T07:49:59.672Z,100798.63
2023-05-06T07:52:27.032Z,100797.97
2023-05-06T07:54:54.079Z,100800.47
2023-05-06T07:57:20.709Z,100799.34
2023-05-06T07:59:49.720Z,100794.25
2023-05-06T08:02:16.877Z,100800.25
2023-05-06T08:04:44.412Z,100799.72
2023-05-06T08:07:11.465Z,100800.75
2023-05-06T08:09:38.353Z,100798.28
2023-05-06T08:12:05.109Z,100802.56
2023-05-06T08:14:31.764Z,100800.16
2023-05-06T08:16:58.458Z,100802.44
2023-05-06T08:19:25.210Z,100800.44
2023-05-06T08:21:51.811Z,100810.91
2023-05-06T08:24:18.655Z,100804.69
2023-05-06T08:26:45.355Z,100810.69
2023-05-06T08:29:12.009Z,100815.19
2023-05-06T08:31:38.774Z,100808.47
2023-05-06T08:34:05.547Z,100816.63
2023-05-06T08:36:34.264Z,100814.91
2023-05-06T08:39:00.858Z,100814.66
2023-05-06T08:41:30.490Z,100820.09
2023-05-06T08:43:58.406Z,100815.94
2023-05-06T08:46:25.272Z,100814.56
2023-05-06T08:48:54.949Z,100814.84
2023-05-06T08:51:28.960Z,100808.97
2023-05-06T08:53:56.830Z,100811.31
2023-05-06T08:56:28.997Z,100809.81
2023-05-06T08:58:57.566Z,100811.16
2023-05-06T09:01:25.836Z,100801.03
2023-05-06T09:03:53.026Z,100804.53
2023-05-06T09:06:19.763Z,100796.72
2023-05-06T09:08:48.939Z,100795.31
2023-05-06T09:11:21.689Z,100794.00
2023-05-06T09:13:48.353Z,100793.47
2023-05-06T09:16:28.986Z,100800.03
2023-05-06T09:18:56.302Z,100790.19
2023-05-06T09:21:30.028Z,100784.31
2023-05-06T09:23:57.656Z,100784.03
2023-05-06T09:26:24.305Z,100788.88
2023-05-06T09:28:51.290Z,100786.47
2023-05-06T09:31:20.409Z,100778.84
2023-05-06T09:33:47.087Z,100779.41
2023-05-06T09:36:13.721Z,100768.38
2023-05-06T09:38:41.260Z,100776.09
2023-05-06T09:41:08.248Z,100775.66
2023-05-06T09:43:35.456Z,100775.59
2023-05-06T09:46:02.885Z,100761.16
2023-05-06T09:48:29.874Z,100763.28
2023-05-06T09:50:58.371Z,100760.06
2023-05-06T09:53:28.356Z,100756.50
2023-05-06T09:55:55.845Z,100764.19
2023-05-06T09:58:23.146Z,100758.53
2023-05-06T10:00:52.156Z,100764.72
2023-05-06T10:03:20.392Z,100754.78
2023-05-06T10:05:47.731Z,100755.50
2023-05-06T10:08:16.978Z,100758.84
2023-05-06T10:10:45.012Z,100757.66
2023-05-06T10:13:13.043Z,100743.25
2023-05-06T10:15:40.477Z,100742.22
2023-05-06T10:18:13.198Z,100736.22
2023-05-06T10:20:42.217Z,100726.44
2023-05-06T10:23:36.203Z,100732.13
2023-05-06T10:26:12.833Z,100722.59
2023-05-06T10:28:45.049Z,100720.66
2023-05-06T10:31:13.497Z,100722.19
2023-05-06T10:33:48.655Z,100719.41
2023-05-06T10:36:28.366Z,100707.19
2023-05-06T10:38:56.998Z,100716.22
2023-05-06T10:41:25.009Z,100713.97
2023-05-06T10:43:51.690Z,100708.44
2023-05-06T10:46:18.500Z,100705.50
2023-05-06T10:49:03.728Z,100704.16
2023-05-06T10:51:31.818Z,100708.97
2023-05-06T10:54:00.682Z,100706.97
2023-05-06T10:56:27.287Z,100698.47
2023-05-06T10:58:54.718Z,100698.84
2023-05-06T11:01:31.184Z,100695.16
2023-05-06T11:03:58.019Z,100688.50
2023-05-06T11:06:39.971Z,100696.16
2023-05-06T11:09:15.098Z,100685.50
2023-05-06T11:12:00.183Z,100682.59
2023-05-06T11:14:27.060Z,100682.34
2023-05-06T11:16:55.203Z,100674.19
2023-05-06T11:19:24.175Z,100673.66
2023-05-06T11:21:51.356Z,100682.78
2023-05-06T11:24:42.251Z,100674.81
2023-05-06T11:27:16.933Z,100672.84
2023-05-06T11:29:43.646Z,100668.66
2023-05-06T11:32:25.241Z,100675.50
2023-05-06T11:34:56.042Z,100666.41
2023-05-06T11:37:27.861Z,100668.78
2023-05-06T11:39:54.837Z,100668.53
2023-05-06T11:42:26.020Z,100664.31
2023-05-06T11:45:00.354Z,100661.75
2023-05-06T11:47:27.208Z,100665.38
2023-05-06T11:49:55.081Z,100653.75
2023-05-06T11:52:21.739Z,100651.53
2023-05-06T11:54:50.989Z,100649.38
2023-05-06T11:57:19.645Z,100648.91
2023-05-06T11:59:46.349Z,100648.13
2023-05-06T12:02:14.436Z,100646.38
2023-05-06T12:04:47.061Z,100649.38
2023-05-06T12:07:15.574Z,100653.50
2023-05-06T12:09:45.842Z,100649.69
2023-05-06T12:12:15.328Z,100648.47
2023-05-06T12:14:42.974Z,100650.28
2023-05-06T12:17:09.915Z,100643.84
2023-05-06T12:19:36.802Z,100637.63
2023-05-06T12:22:20.244Z,100646.03
2023-05-06T12:24:50.411Z,100638.47
2023-05-06T12:27:35.926Z,100637.78
2023-05-06T12:30:02.725Z,100637.50
2023-05-06T12:32:30.527Z,100635.34
2023-05-06T12:34:57.452Z,100628.16
2023-05-06T12:37:28.758Z,100634.25
2023-05-06T12:39:58.835Z,100631.47
2023-05-06T12:42:26.584Z,100615.97
2023-05-06T12:44:53.506Z,100616.09
2023-05-06T12:47:21.273Z,100612.47
2023-05-06T12:49:55.913Z,100609.63
2023-05-06T12:52:24.521Z,100612.69
2023-05-06T12:54:51.753Z,100616.66
2023-05-06T12:57:18.984Z,100615.13
2023-05-06T12:59:46.757Z,100611.28
2023-05-06T13:02:14.212Z,100603.78
2023-05-06T13:04:41.410Z,100608.44
2023-05-06T13:07:08.356Z,100606.94
2023-05-06T13:09:35.149Z,100606.16
2023-05-06T13:12:04.155Z,100604.28
2023-05-06T13:14:39.840Z,100599.88
2023-05-06T13:17:07.535Z,100600.97
2023-05-06T13:19:34.345Z,100597.31
2023-05-06T13:22:01.794Z,100594.56
2023-05-06T13:24:29.377Z,100597.53
2023-05-06T13:26:55.962Z,100584.88
2023-05-06T13:29:22.650Z,100589.88
2023-05-06T13:31:49.404Z,100582.44
2023-05-06T13:34:16.151Z,100584.56
2023-05-06T13:36:45.296Z,100578.25
2023-05-06T13:39:11.955Z,100571.94
2023-05-06T13:41:38.539Z,100576.56
2023-05-06T13:44:05.466Z,100567.53
2023-05-06T13:46:32.262Z,100566.50
2023-05-06T13:48:58.934Z,100563.13
2023-05-06T13:51:25.621Z,100567.81
2023-05-06T13:53:52.281Z,100562.69
2023-05-06T13:56:18.929Z,100558.56
2023-05-06T13:58:45.711Z,100553.63
2023-05-06T14:01:13.069Z,100551.66
2023-05-06T14:03:39.686Z,100547.34
2023-05-06T14:06:08.583Z,100544.94
2023-05-06T14:08:35.319Z,100541.94
2023-05-06T14:11:03.840Z,100549.56
2023-05-06T14:13:31.926Z,100539.34
2023-05-06T14:16:02.254Z,100544.66
2023-05-06T14:18:29.463Z,100537.31
2023-05-06T14:21:00.706Z,100542.41
2023-05-06T14:23:30.368Z,100541.28
2023-05-06T14:26:05.456Z,100533.84
2023-05-06T14:28:32.337Z,100543.81
2023-05-06T14:30:59.046Z,100543.81
2023-05-06T14:33:25.670Z,100534.72
2023-05-06T14:35:54.922Z,100532.44
2023-05-06T14:38:21.694Z,100536.19
2023-05-06T14:40:48.509Z,100528.09
2023-05-06T14:43:15.145Z,100537.41
2023-05-06T14:45:42.005Z,100531.44
2023-05-06T14:48:08.790Z,100534.34
2023-05-06T14:50:35.629Z,100532.38
2023-05-06T14:53:03.762Z,100528.75
2023-05-06T14:55:30.909Z,100524.75
2023-05-06T14:57:57.526Z,100521.63
2023-05-06T15:00:24.404Z,100520.81
2023-05-06T15:02:51.161Z,100530.91
2023-05-06T15:05:18.017Z,100520.72
2023-05-06T15:07:44.669Z,100530.13
2023-05-06T15:10:11.291Z,100521.16
2023-05-06T15:12:38.076Z,100523.19
2023-05-06T15:15:05.654Z,100523.22
2023-05-06T15:17:32.615Z,100519.94
2023-05-06T15:19:59.420Z,100513.66
2023-05-06T15:22:26.206Z,100512.16
2023-05-06T15:24:55.870Z,100505.63
2023-05-06T15:27:22.534Z,100511.59
2023-05-06T15:29:49.232Z,100511.25
2023-05-06T15:32:16.157Z,100511.41
2023-05-06T15:34:42.776Z,100511.41
2023-05-06T15:37:09.462Z,100507.53
2023-05-06T15:39:36.588Z,100514.41
2023-05-06T15:42:03.698Z,100506.28
2023-05-06T15:44:32.017Z,100512.63
2023-05-06T15:46:58.791Z,100500.16
2023-05-06T15:49:51.113Z,100504.22
2023-05-06T15:52:12.333Z,100503.44
2023-05-06T15:54:40.005Z,100500.22
2023-05-06T15:57:07.823Z,100501.78
2023-05-06T15:59:34.845Z,100490.34
2023-05-06T16:02:26.087Z,100499.16
2023-05-06T16:04:51.549Z,100489.34
2023-05-06T16:07:18.401Z,100492.84
2023-05-06T16:09:45.099Z,100487.41
2023-05-06T16:12:11.723Z,100495.00
2023-05-06T16:14:38.371Z,100490.06
2023-05-06T16:17:05.092Z,100498.97
2023-05-06T16:19:32.112Z,100496.19
2023-05-06T16:22:02.322Z,100494.09
2023-05-06T16:24:29.161Z,100495.13
2023-05-06T16:26:56.009Z,100492.56
2023-05-06T16:29:22.729Z,100495.28
2023-05-06T16:31:49.493Z,100489.91
2023-05-06T16:34:16.435Z,100493.44
2023-05-06T16:36:45.623Z,100492.22
2023-05-06T16:39:12.277Z,100492.16
2023-05-06T16:41:39.032Z,100503.06
2023-05-06T16:44:05.912Z,100492.81
2023-05-06T16:46:32.723Z,100492.56
2023-05-06T16:48:59.359Z,100494.84
2023-05-06T16:51:26.131Z,100488.75
2023-05-06T16:53:52.800Z,100490.31
2023-05-06T16:56:19.741Z,100487.44
2023-05-06T16:58:46.383Z,100484.09
2023-05-06T17:01:13.117Z,100487.22
2023-05-06T17:03:39.830Z,100486.81
2023-05-06T17:06:08.938Z,100480.66
2023-05-06T17:08:36.716Z,100480.91
2023-05-06T17:11:06.481Z,100481.13
2023-05-06T17:13:33.586Z,100488.25
2023-05-06T17:16:02.003Z,100491.66
2023-05-06T17:18:31.713Z,100485.34
2023-05-06T17:21:01.434Z,100489.56
2023-05-06T17:23:28.052Z,100486.44
2023-05-06T17:25:56.456Z,100491.91
2023-05-06T17:28:23.327Z,100486.88
2023-05-06T17:30:50.051Z,100495.16
2023-05-06T17:33:16.878Z,100488.91
2023-05-06T17:35:49.305Z,100491.09
2023-05-06T17:38:16.033Z,100495.38
2023-05-06T17:40:43.215Z,100498.06
2023-05-06T17:43:09.924Z,100493.84
2023-05-06T17:45:36.586Z,100504.63
2023-05-06T17:48:03.394Z,100504.09
2023-05-06T17:50:30.170Z,100513.72
2023-05-06T17:53:03.174Z,100512.84
2023-05-06T17:55:29.806Z,100507.09
2023-05-06T17:57:56.496Z,100521.53
2023-05-06T18:00:23.396Z,100516.25
2023-05-06T18:02:50.177Z,100529.25
2023-05-06T18:05:17.182Z,100545.94
2023-05-06T18:07:45.548Z,100556.84
2023-05-06T18:10:12.129Z,100557.66
2023-05-06T18:12:39.204Z,100557.09
2023-05-06T18:15:06.660Z,100568.69
2023-05-06T18:17:34.019Z,100571.56
2023-05-06T18:20:00.725Z,100581.31
2023-05-06T18:22:27.530Z,100571.88
2023-05-06T18:24:54.184Z,100581.50
2023-05-06T18:27:24.300Z,100583.53
2023-05-06T18:29:53.980Z,100585.06
2023-05-06T18:32:20.974Z,100582.38
2023-05-06T18:34:47.582Z,100576.22
2023-05-06T18:37:14.193Z,100581.97
2023-05-06T18:39:41.644Z,100582.81
2023-05-06T18:42:11.133Z,100573.69
2023-05-06T18:44:38.111Z,100578.63
2023-05-06T18:47:05.086Z,100579.84
2023-05-06T18:49:31.743Z,100585.25
2023-05-06T18:51:58.463Z,100577.50
2023-05-06T18:54:25.262Z,100582.09
2023-05-06T18:56:52.113Z,100583.00
2023-05-06T18:59:18.804Z,100587.00
2023-05-06T19:01:48.620Z,100592.47
2023-05-06T19:04:15.292Z,100594.44
2023-05-06T19:06:42.106Z,100599.34
2023-05-06T19:09:09.153Z,100600.75
2023-05-06T19:11:35.935Z,100617.09
2023-05-06T19:14:02.837Z,100618.50
2023-05-06T19:16:29.731Z,100627.63
2023-05-06T19:18:56.746Z,100627.00
2023-05-06T19:21:23.453Z,100637.81
2023-05-06T19:23:50.270Z,100636.69
2023-05-06T19:26:16.906Z,100641.81
2023-05-06T19:28:43.562Z,100648.91
2023-05-06T19:31:11.417Z,100643.19
2023-05-06T19:33:39.119Z,100640.75
2023-05-06T19:36:06.559Z,100628.13
2023-05-06T19:38:33.937Z,100627.31
2023-05-06T19:41:00.712Z,100637.22
2023-05-06T19:43:27.535Z,100644.94
2023-05-06T19:45:54.201Z,100637.03
2023-05-06T19:48:20.886Z,100637.09
2023-05-06T19:50:47.555Z,100623.41
2023-05-06T19:53:16.474Z,100621.09
2023-05-06T19:55:45.975Z,100623.31
2023-05-06T19:58:12.597Z,100611.41
2023-05-06T20:00:39.410Z,100608.25
2023-05-06T20:03:06.185Z,100599.31
2023-05-06T20:05:32.835Z,100595.09
2023-05-06T20:07:59.602Z,100597.31
2023-05-06T20:10:27.041Z,100585.59
2023-05-06T20:12:56.019Z,100587.09
2023-05-06T20:15:23.932Z,100611.56
2023-05-06T20:17:50.659Z,100632.44
2023-05-06T20:20:17.384Z,100635.78
2023-05-06T20:22:44.073Z,100627.19
2023-05-06T20:25:13.140Z,100619.72
2023-05-06T20:27:40.309Z,100613.88
2023-05-06T20:30:07.560Z,100611.56
2023-05-06T20:32:38.287Z,100626.84
2023-05-06T20:35:06.109Z,100647.75
2023-05-06T20:37:35.693Z,100643.84
2023-05-06T20:40:03.083Z,100633.78
2023-05-06T20:42:29.715Z,100642.19
2023-05-06T20:44:56.334Z,100639.06
2023-05-06T20:47:23.157Z,100642.38
2023-05-06T20:49:49.860Z,100631.16
2023-05-06T20:52:19.135Z,100634.16
2023-05-06T20:54:46.181Z,100619.47
2023-05-06T20:57:14.048Z,100629.84
2023-05-06T20:59:41.332Z,100618.31
2023-05-06T21:02:08.124Z,100607.78
2023-05-06T21:04:34.792Z,100595.28
2023-05-06T21:07:01.584Z,100586.00
2023-05-06T21:09:28.758Z,100585.69
2023-05-06T21:11:57.977Z,100584.47
2023-05-06T21:14:26.641Z,100574.97
2023-05-06T21:16:53.469Z,100577.78
2023-05-06T21:19:20.155Z,100577.56
2023-05-06T21:21:48.235Z,100580.22
2023-05-06T21:24:15.034Z,100584.47
2023-05-06T21:26:41.843Z,100587.25
2023-05-06T21:29:08.673Z,100591.53
2023-05-06T21:31:36.942Z,100597.44
2023-05-06T21:34:06.369Z,100602.50
2023-05-06T21:36:33.093Z,100619.44
2023-05-06T21:39:05.381Z,100616.00
2023-05-06T21:41:32.024Z,100619.84
2023-05-06T21:43:58.751Z,100616.44
2023-05-06T21:46:28.493Z,100606.63
2023-05-06T21:48:55.181Z,100601.09
2023-05-06T21:51:21.956Z,100596.84
2023-05-06T21:53:54.434Z,100610.03
2023-05-06T21:56:21.528Z,100617.78
2023-05-06T21:58:50.029Z,100625.38
2023-05-06T22:01:16.938Z,100630.47
2023-05-06T22:03:44.870Z,100630.31
2023-05-06T22:06:15.150Z,100620.16
2023-05-06T22:08:42.242Z,100595.72
2023-05-06T22:11:09.095Z,100589.28
2023-05-06T22:13:38.738Z,100587.31
2023-05-06T22:16:10.213Z,100585.34
2023-05-06T22:18:39.465Z,100592.56
2023-05-06T22:21:06.174Z,100572.06
2023-05-06T22:23:40.220Z,100581.09
2023-05-06T22:26:08.005Z,100577.31
2023-05-06T22:28:34.697Z,100585.34
2023-05-06T22:31:01.465Z,100584.84
2023-05-06T22:33:29.440Z,100575.81
2023-05-06T22:35:56.153Z,100574.03
2023-05-06T22:38:25.773Z,100575.34
2023-05-06T22:40:52.982Z,100580.44
2023-05-06T22:43:20.000Z,100572.22
2023-05-06T22:45:46.764Z,100573.53
2023-05-06T22:48:13.576Z,100574.34
2023-05-06T22:50:41.517Z,100580.28
2023-05-06T22:53:14.950Z,100570.41
2023-05-06T22:55:42.835Z,100572.06
2023-05-06T22:58:09.625Z,100567.59
2023-05-06T23:00:36.302Z,100570.25
2023-05-06T23:03:06.182Z,100569.75
2023-05-06T23:05:32.981Z,100573.19
2023-05-06T23:07:59.650Z,100571.72
2023-05-06T23:10:26.449Z,100569.25
2023-05-06T23:12:53.197Z,100575.31
2023-05-06T23:15:19.869Z,100580.91
2023-05-06T23:17:46.685Z,100578.63
2023-05-06T23:20:13.376Z,100581.56
2023-05-06T23:22:42.327Z,100581.91
2023-05-06T23:25:11.508Z,100576.31
2023-05-06T23:27:41.108Z,100570.91
2023-05-06T23:30:11.557Z,100575.66
2023-05-06T23:32:38.264Z,100574.03
2023-05-06T23:35:05.523Z,100576.00
2023-05-06T23:37:34.882Z,100575.81
2023-05-06T23:40:01.693Z,100584.19
2023-05-06T23:42:31.028Z,100595.06
2023-05-06T23:44:57.706Z,100607.19
2023-05-06T23:47:24.363Z,100608.34
2023-05-06T23:49:51.113Z,100610.81
2023-05-06T23:52:17.751Z,100588.31
2023-05-06T23:54:44.548Z,100592.25
2023-05-06T23:57:11.165Z,100591.91
2023-05-06T23:59:37.893Z,100580.59
